SNQ weather

San Joaquin Aitport
Cajeme, Sonora, Mexico

Public forecast

Using degrees Celsius for public forecast. Weather courtesy of forecast.io.

Closest aviation weather report (METAR) to San Joaquin Aitport

Closest report is Ciudad Obregón International Airport, 7.5 nm (13.9 km) ENE. Retrieved 2020/05/30 00:49 UTC (1 hour ago):

MMCN 300049Z 21008KT 10SM FEW100 SCT200 31/18 A2979 RMK 8/063 HZY

Closest aviation forecast (TAF) to San Joaquin Aitport

Forecast is more than 6 hours old.

Closest forecast is Ciudad Obregón International Airport, 7.5 nm (13.9 km) ENE. Retrieved 2020/05/29 18:16 UTC (8 hours ago):

TAF MMCN 291715Z 2918/3018 24010KT P6SM SCT020 BECMG 3000/3001 00000KT FM301500 29010KT P6SM SKC